createdAt,value
2022-11-25T00:01:12.915Z,3.00
2022-11-25T00:04:00.534Z,2.47
2022-11-25T00:06:55.126Z,3.10
2022-11-25T00:09:41.896Z,3.13
2022-11-25T00:12:28.644Z,2.97
2022-11-25T00:15:15.379Z,2.63
2022-11-25T00:18:02.108Z,2.83
2022-11-25T00:20:48.838Z,2.60
2022-11-25T00:23:35.562Z,2.77
2022-11-25T00:26:38.178Z,2.70
2022-11-25T00:29:29.510Z,2.60
2022-11-25T00:32:16.335Z,2.77
2022-11-25T00:35:03.045Z,3.27
2022-11-25T00:37:49.774Z,3.17
2022-11-25T00:40:36.521Z,2.40
2022-11-25T00:43:21.642Z,2.93
2022-11-25T00:46:08.940Z,2.70
2022-11-25T00:48:55.699Z,2.73
2022-11-25T00:51:42.497Z,2.80
2022-11-25T00:54:29.417Z,3.13
2022-11-25T00:57:16.220Z,3.10
2022-11-25T01:00:03.139Z,2.80
2022-11-25T01:02:49.887Z,3.00
2022-11-25T01:05:36.697Z,2.73
2022-11-25T01:08:23.478Z,2.70
2022-11-25T01:11:18.643Z,2.73
2022-11-25T01:14:06.181Z,2.90
2022-11-25T01:16:53.434Z,3.17
2022-11-25T01:19:21.141Z,2.67
2022-11-25T01:21:47.967Z,2.67
2022-11-25T01:24:16.002Z,2.70
2022-11-25T01:26:44.230Z,2.37
2022-11-25T01:29:36.859Z,2.37
2022-11-25T01:32:23.698Z,2.67
2022-11-25T01:35:10.410Z,2.27
2022-11-25T01:37:57.118Z,2.47
2022-11-25T01:40:44.111Z,2.50
2022-11-25T01:43:34.746Z,2.50
2022-11-25T01:46:27.054Z,2.50
2022-11-25T01:49:23.660Z,2.40
2022-11-25T01:52:26.350Z,2.97
2022-11-25T01:55:03.140Z,2.60
2022-11-25T01:57:56.074Z,2.60
2022-11-25T02:00:44.721Z,2.43
2022-11-25T02:03:31.513Z,2.70
2022-11-25T02:06:37.259Z,1.87
2022-11-25T02:09:26.938Z,2.33
2022-11-25T02:12:14.232Z,2.43
2022-11-25T02:15:01.915Z,2.47
2022-11-25T02:17:48.755Z,2.37
2022-11-25T02:20:38.004Z,2.70
2022-11-25T02:23:54.823Z,2.33
2022-11-25T02:26:42.051Z,2.67
2022-11-25T02:29:30.101Z,2.20
2022-11-25T02:32:17.270Z,2.00
2022-11-25T02:35:10.488Z,2.33
2022-11-25T02:37:57.284Z,2.03
2022-11-25T02:40:45.754Z,1.97
2022-11-25T02:43:32.981Z,2.50
2022-11-25T02:46:27.092Z,1.90
2022-11-25T02:49:16.231Z,2.20
2022-11-25T02:52:04.786Z,2.60
2022-11-25T02:54:51.654Z,2.37
2022-11-25T06:58:36.686Z,2.70
2022-11-25T07:01:31.708Z,2.70
2022-11-25T07:04:11.901Z,2.97
2022-11-25T07:06:38.705Z,2.67
2022-11-25T07:09:25.870Z,2.77
2022-11-25T07:12:08.890Z,2.53
2022-11-25T07:14:55.620Z,2.63
2022-11-25T07:17:42.328Z,2.70
2022-11-25T07:20:29.459Z,3.20
2022-11-25T07:23:16.939Z,2.60
2022-11-25T07:26:03.664Z,2.33
2022-11-25T07:28:50.458Z,2.63
2022-11-25T07:31:38.915Z,2.20
2022-11-25T07:34:29.705Z,2.57
2022-11-25T07:37:16.580Z,2.77
2022-11-25T07:40:03.314Z,2.50
2022-11-25T07:42:30.232Z,2.43
2022-11-25T07:45:16.959Z,2.60
2022-11-25T07:48:10.363Z,2.50
2022-11-25T07:50:57.145Z,2.57
2022-11-25T07:53:43.887Z,2.43
2022-11-25T07:56:30.732Z,2.37
2022-11-25T07:59:18.008Z,2.47
2022-11-25T08:02:05.200Z,2.10
2022-11-25T08:04:51.938Z,2.57
2022-11-25T08:07:38.689Z,2.33
2022-11-25T08:10:26.001Z,2.47
2022-11-25T08:13:12.764Z,2.50
2022-11-25T08:15:59.648Z,2.20
2022-11-25T08:18:46.595Z,2.67
2022-11-25T08:21:34.897Z,2.40
2022-11-25T08:24:21.618Z,2.10
2022-11-25T08:27:08.539Z,2.30
2022-11-25T08:29:55.246Z,2.60
2022-11-25T08:32:42.080Z,2.20
2022-11-25T08:35:24.973Z,2.10
2022-11-25T08:37:51.883Z,2.30
2022-11-25T08:40:39.162Z,2.13
2022-11-25T08:43:29.394Z,2.30
2022-11-25T08:46:16.968Z,2.83
2022-11-25T08:49:04.424Z,2.20
2022-11-25T08:51:52.891Z,2.53
2022-11-25T08:54:39.785Z,2.30
2022-11-25T08:57:26.715Z,2.60
2022-11-25T09:00:13.689Z,2.60
2022-11-25T09:03:03.431Z,2.60
2022-11-25T09:05:51.391Z,2.60
2022-11-25T09:08:38.182Z,2.07
2022-11-25T09:11:25.453Z,2.63
2022-11-25T09:14:12.424Z,2.50
2022-11-25T09:16:59.302Z,2.73
2022-11-25T09:19:46.019Z,2.17
2022-11-25T09:22:32.736Z,2.90
2022-11-25T09:25:19.451Z,2.80
2022-11-25T09:28:06.272Z,2.60
2022-11-25T09:30:53.066Z,2.70
2022-11-25T09:33:40.399Z,3.37
2022-11-25T09:36:27.341Z,2.57
2022-11-25T09:39:14.150Z,2.50
2022-11-25T09:42:18.755Z,2.60
2022-11-25T09:45:41.946Z,3.00
2022-11-25T09:48:50.482Z,2.50
2022-11-25T09:51:42.221Z,2.70
2022-11-25T09:54:40.078Z,2.70
2022-11-25T09:57:29.877Z,2.63
2022-11-25T10:00:26.452Z,2.20
2022-11-25T10:03:22.880Z,2.93
2022-11-25T10:06:11.379Z,2.73
2022-11-25T10:09:08.071Z,3.17
2022-11-25T10:12:09.692Z,2.40
2022-11-25T10:15:06.398Z,2.40
2022-11-25T10:17:56.003Z,3.60
2022-11-25T10:20:28.235Z,3.07
2022-11-25T10:23:36.656Z,2.90
2022-11-25T10:26:31.223Z,2.47
2022-11-25T10:29:39.739Z,3.33
2022-11-25T10:32:48.400Z,2.93
2022-11-25T10:35:28.551Z,2.90
2022-11-25T10:38:00.461Z,3.10
2022-11-25T10:40:47.260Z,3.33
2022-11-25T10:43:34.815Z,2.90
2022-11-25T10:47:11.865Z,2.30
2022-11-25T10:50:07.119Z,2.80
2022-11-25T10:53:06.783Z,2.80
2022-11-25T10:55:54.812Z,2.63
2022-11-25T10:58:59.056Z,2.80
2022-11-25T11:01:45.874Z,2.40
2022-11-25T11:04:35.469Z,2.53
2022-11-25T11:07:28.975Z,2.37
2022-11-25T11:10:35.664Z,2.37
2022-11-25T11:13:26.240Z,2.30
2022-11-25T11:16:14.216Z,2.83
2022-11-25T11:19:01.851Z,2.70
2022-11-25T11:21:54.584Z,2.63
2022-11-25T11:24:58.157Z,2.60
2022-11-25T11:27:45.335Z,3.20
2022-11-25T11:30:36.600Z,2.43
2022-11-25T11:33:23.302Z,3.33
2022-11-25T11:36:27.812Z,2.50
2022-11-25T11:39:23.415Z,3.03
2022-11-25T11:42:34.903Z,2.83
2022-11-25T11:45:52.580Z,2.90
2022-11-25T11:48:39.239Z,2.47
2022-11-25T11:51:37.679Z,3.30
2022-11-25T11:54:41.396Z,3.20
2022-11-25T11:57:55.177Z,2.73
2022-11-25T12:00:42.896Z,3.00
2022-11-25T12:03:47.980Z,2.50
2022-11-25T12:06:40.170Z,3.00
2022-11-25T12:09:39.079Z,2.60
2022-11-25T12:12:34.729Z,2.60
2022-11-25T12:15:29.551Z,2.70
2022-11-25T12:18:22.496Z,2.93
2022-11-25T12:21:21.135Z,2.60
2022-11-25T12:24:21.459Z,2.60
2022-11-25T12:27:20.686Z,3.20
2022-11-25T12:30:37.726Z,2.43
2022-11-25T12:33:40.279Z,2.83
2022-11-25T12:36:49.808Z,2.97
2022-11-25T12:39:51.053Z,2.53
2022-11-25T12:42:44.299Z,3.03
2022-11-25T12:45:44.968Z,2.77
2022-11-25T12:48:32.253Z,2.77
2022-11-25T12:51:46.864Z,2.97
2022-11-25T12:54:47.535Z,2.60
2022-11-25T12:57:49.307Z,3.30
2022-11-25T13:00:48.226Z,2.73
2022-11-25T13:03:59.243Z,2.47
2022-11-25T13:07:00.058Z,2.50
2022-11-25T13:10:05.521Z,2.80
2022-11-25T13:13:18.934Z,2.87
2022-11-25T13:16:08.994Z,2.80
2022-11-25T13:19:01.751Z,3.40
2022-11-25T13:21:48.563Z,2.53
2022-11-25T13:24:51.783Z,2.70
2022-11-25T13:27:58.695Z,2.73
2022-11-25T13:30:54.267Z,3.23
2022-11-25T13:33:43.674Z,2.87
2022-11-25T13:36:36.153Z,3.13
2022-11-25T13:39:36.268Z,3.23
2022-11-25T13:42:44.065Z,3.10
2022-11-25T13:45:45.562Z,2.80
2022-11-25T13:48:40.105Z,2.97
2022-11-25T13:51:42.559Z,2.97
2022-11-25T13:54:37.795Z,3.20
2022-11-25T13:57:33.755Z,2.97
2022-11-25T14:00:25.983Z,3.30
2022-11-25T14:03:12.775Z,2.97
2022-11-25T14:05:56.629Z,3.13
2022-11-25T14:09:14.392Z,2.93
2022-11-25T14:12:40.994Z,2.60
2022-11-25T14:15:38.153Z,3.17
2022-11-25T14:19:28.046Z,3.40
2022-11-25T14:22:37.873Z,3.03
2022-11-25T14:25:53.941Z,3.23
2022-11-25T14:28:43.368Z,2.90
2022-11-25T14:31:36.137Z,2.90
2022-11-25T14:35:04.641Z,4.70
2022-11-25T14:38:04.824Z,3.40
2022-11-25T14:41:12.663Z,3.70
2022-11-25T14:44:08.705Z,3.50
2022-11-25T14:47:11.553Z,2.90
2022-11-25T14:50:33.198Z,2.97
2022-11-25T14:53:12.972Z,3.27
2022-11-25T14:55:59.757Z,3.23
2022-11-25T14:58:47.246Z,3.00
2022-11-25T15:01:41.554Z,3.07
2022-11-25T15:04:39.696Z,2.97
2022-11-25T15:07:38.439Z,2.80
2022-11-25T15:10:25.986Z,2.83
2022-11-25T15:13:12.838Z,2.80
2022-11-25T15:16:00.017Z,3.33
2022-11-25T15:18:27.294Z,3.50
2022-11-25T15:21:18.563Z,3.17
2022-11-25T15:24:05.379Z,3.50
2022-11-25T15:26:54.770Z,4.10
2022-11-25T15:29:41.800Z,3.50
2022-11-25T15:32:40.028Z,3.27
2022-11-25T15:35:28.764Z,3.30
2022-11-25T15:38:15.601Z,3.70
2022-11-25T15:41:03.116Z,3.40
2022-11-25T15:43:51.870Z,3.97
2022-11-25T15:46:38.660Z,4.60
2022-11-25T15:49:27.068Z,4.37
2022-11-25T15:52:25.965Z,4.20
2022-11-25T15:55:17.555Z,4.47
2022-11-25T15:58:09.794Z,3.67
2022-11-25T16:00:56.679Z,4.13
2022-11-25T16:03:43.498Z,3.67
2022-11-25T16:06:47.850Z,4.33
2022-11-25T16:09:41.717Z,4.13
2022-11-25T16:12:37.365Z,4.03
2022-11-25T16:15:24.387Z,3.97
2022-11-25T16:18:32.802Z,4.47
2022-11-25T16:21:25.079Z,3.77
2022-11-25T16:24:19.811Z,3.77
2022-11-25T16:27:13.491Z,3.50
2022-11-25T16:30:30.752Z,4.43
2022-11-25T16:33:17.707Z,3.53
2022-11-25T16:36:08.349Z,3.53
2022-11-25T16:38:56.388Z,3.73
2022-11-25T16:41:46.462Z,3.77
2022-11-25T16:44:39.246Z,3.70
2022-11-25T16:47:25.978Z,3.77
2022-11-25T16:50:14.438Z,3.13
2022-11-25T16:53:01.260Z,3.70
2022-11-25T16:55:48.036Z,3.60
2022-11-25T16:58:42.739Z,4.07
2022-11-25T17:01:34.393Z,4.23
2022-11-25T17:04:21.179Z,4.00
2022-11-25T17:07:31.502Z,4.20
2022-11-25T17:10:14.599Z,4.40
2022-11-25T17:13:03.255Z,4.40
2022-11-25T17:15:53.578Z,4.10
2022-11-25T17:18:40.617Z,4.03
2022-11-25T17:21:29.025Z,3.60
2022-11-25T17:24:21.271Z,3.93
2022-11-25T17:27:16.611Z,4.07
2022-11-25T17:30:04.153Z,3.80
2022-11-25T17:32:51.708Z,4.20
2022-11-25T17:35:40.293Z,3.97
2022-11-25T17:38:37.780Z,4.00
2022-11-25T17:41:29.332Z,4.43
2022-11-25T17:44:16.226Z,3.80
2022-11-25T17:47:03.059Z,4.20
2022-11-25T17:49:49.834Z,3.53
2022-11-25T17:52:36.567Z,3.83
2022-11-25T17:55:23.430Z,3.53
2022-11-25T17:58:10.535Z,3.33
2022-11-25T18:00:58.607Z,3.67
2022-11-25T18:03:45.447Z,3.67
2022-11-25T18:06:32.170Z,3.60
2022-11-25T18:09:18.906Z,2.90
2022-11-25T18:12:12.685Z,3.20
2022-11-25T18:14:59.439Z,3.83
2022-11-25T18:17:46.179Z,3.83
2022-11-25T18:20:38.935Z,4.13
2022-11-25T18:23:25.631Z,4.13
2022-11-25T18:26:14.891Z,4.27
2022-11-25T18:29:01.695Z,3.93
2022-11-25T18:31:48.533Z,4.10
2022-11-25T18:34:36.563Z,3.93
2022-11-25T18:37:23.506Z,3.90
2022-11-25T18:40:10.247Z,3.80
2022-11-25T18:42:57.175Z,3.70
2022-11-25T18:45:48.092Z,3.73
2022-11-25T18:48:40.934Z,4.35
2022-11-25T18:51:31.798Z,4.20
2022-11-25T18:54:18.529Z,4.70
2022-11-25T18:57:09.947Z,3.77
2022-11-25T19:00:24.426Z,3.27
2022-11-25T19:03:03.602Z,3.80
2022-11-25T19:05:52.833Z,3.57
2022-11-25T19:08:40.201Z,3.60
2022-11-25T19:11:35.929Z,3.77
2022-11-25T19:14:26.607Z,3.80
2022-11-25T19:17:18.332Z,4.20
2022-11-25T19:20:06.576Z,4.13
2022-11-25T19:22:57.874Z,3.80
2022-11-25T19:25:47.287Z,4.27
2022-11-25T19:28:36.405Z,4.20
2022-11-25T19:31:23.877Z,4.23
2022-11-25T19:34:11.352Z,4.30
2022-11-25T19:36:58.095Z,3.50
2022-11-25T19:39:44.827Z,4.27
2022-11-25T19:42:31.560Z,3.50
2022-11-25T19:45:18.349Z,4.20
2022-11-25T19:48:08.147Z,4.60
2022-11-25T19:50:58.738Z,4.50
2022-11-25T19:53:46.405Z,4.10
2022-11-25T19:56:38.238Z,4.10
2022-11-25T19:59:25.087Z,4.17
2022-11-25T20:02:11.914Z,4.60
2022-11-25T20:04:58.743Z,4.67
2022-11-25T20:07:47.048Z,4.17
2022-11-25T20:10:40.337Z,4.13
2022-11-25T20:13:27.157Z,4.43
2022-11-25T20:16:15.141Z,4.03
2022-11-25T20:19:02.468Z,3.83
2022-11-25T20:21:56.487Z,4.50
2022-11-25T20:24:43.236Z,3.70
2022-11-25T20:27:32.243Z,4.27
2022-11-25T20:30:18.981Z,4.60
2022-11-25T20:33:05.944Z,4.27
2022-11-25T20:35:52.883Z,4.00
2022-11-25T20:38:46.219Z,4.43
2022-11-25T20:41:34.181Z,4.83
2022-11-25T20:44:21.102Z,3.60
2022-11-25T20:47:07.909Z,4.00
2022-11-25T20:49:54.697Z,4.07
2022-11-25T20:52:49.873Z,4.23
2022-11-25T20:55:43.475Z,3.60
2022-11-25T20:58:51.835Z,4.43
2022-11-25T21:01:41.677Z,4.23
2022-11-25T21:04:28.460Z,4.20
2022-11-25T21:07:15.289Z,4.20
2022-11-25T21:10:02.723Z,4.00
2022-11-25T21:12:49.441Z,4.40
2022-11-25T21:15:39.563Z,4.43
2022-11-25T21:18:26.319Z,4.50
2022-11-25T21:21:16.261Z,4.20
2022-11-25T21:24:05.671Z,4.57
2022-11-25T21:26:52.450Z,4.17
2022-11-25T21:29:39.748Z,4.00
2022-11-25T21:32:44.681Z,3.77
2022-11-25T21:35:32.378Z,3.80
2022-11-25T21:38:23.546Z,4.20
2022-11-25T21:41:12.904Z,4.03
2022-11-25T21:44:05.457Z,4.03
2022-11-25T21:46:52.315Z,3.60
2022-11-25T21:49:39.569Z,3.87
2022-11-25T21:52:26.316Z,4.50
2022-11-25T21:55:13.069Z,4.33
2022-11-25T21:58:00.765Z,4.00
2022-11-25T22:00:47.566Z,4.37
2022-11-25T22:03:39.866Z,3.87
2022-11-25T22:06:55.707Z,4.40
2022-11-25T22:09:42.471Z,4.37
2022-11-25T22:12:55.604Z,4.37
2022-11-25T22:15:43.259Z,3.77
2022-11-25T22:18:47.672Z,4.37
2022-11-25T22:21:35.171Z,4.17
2022-11-25T22:24:21.871Z,4.03
2022-11-25T22:27:11.272Z,3.53
2022-11-25T22:29:58.017Z,4.03
2022-11-25T22:32:45.595Z,4.33
2022-11-25T22:35:40.980Z,4.03
2022-11-25T22:38:36.623Z,3.70
2022-11-25T22:41:24.411Z,4.57
2022-11-25T22:44:12.451Z,4.10
2022-11-25T22:46:59.194Z,4.10
2022-11-25T22:49:49.782Z,4.30
2022-11-25T22:52:43.829Z,4.43
2022-11-25T22:55:57.138Z,4.17
2022-11-25T22:58:46.313Z,3.87
2022-11-25T23:01:35.353Z,3.90
2022-11-25T23:04:22.347Z,4.50
2022-11-25T23:07:09.228Z,4.07
2022-11-25T23:09:55.979Z,4.23
2022-11-25T23:12:42.722Z,3.83
2022-11-25T23:15:33.162Z,3.77
2022-11-25T23:18:22.548Z,3.70
2022-11-25T23:21:09.267Z,3.73
2022-11-25T23:23:56.018Z,3.70
2022-11-25T23:26:43.324Z,3.77
2022-11-25T23:29:30.095Z,3.90
2022-11-25T23:32:18.698Z,4.43
2022-11-25T23:35:06.140Z,4.27
2022-11-25T23:37:52.910Z,3.80
2022-11-25T23:40:41.132Z,4.07
2022-11-25T23:43:35.414Z,4.73
2022-11-25T23:46:22.274Z,4.00
2022-11-25T23:49:17.335Z,4.57
2022-11-25T23:52:07.750Z,3.50
2022-11-25T23:55:02.466Z,4.37
2022-11-25T23:57:53.278Z,4.10
